首页
METAR-TAF:

METAR-TAF

机场 :

Ely Airport (Yelland Field)

伊利, 内华达州, 美国

纬度: 39-17-42N, 经度: 114-50-43W, 海拔: 1907米

当前天气观测

该预报发布于48分钟前的23:53 UTC
风速10节,风向南转西南,有时为20节阵风
温度 33°C
湿度 6%
气压 1019 hPa
能見度: 16.1公里
天空无云

METAR: KELY 122353Z AUTO 20010G20KT 10SM CLR 33/M09 A3010 RMK AO2 SLP086 T03281094 10339 20311 58014

时间: 17:41 (00:41 UTC)

预报

该预报发布于7小时和18分钟前的17:23 UTC
预报有效从12日的 18点(UTC)到 13日的 18点(UTC)
风速15节,风向南转西南,有时为25节阵风
能見度: 10公里
天空无云
从 13日的 0400点(UTC)
风速10节,风向
能見度: 10公里
天空无云

TAF: KELY 121723Z 1218/1318 21015G25KT P6SM SKC FM130400 19010KT P6SM SKC

超过4000个机场的气象观测和天气预报(METAR&TAF报告)。

可查询的气象台以黄色和红色小点在地图上表示。

将鼠标移到小点上方,可查看气象台名称。

然后点击查看天气观测和预报。

如需切换地图:点击带黑十字的绿色按钮放大地图;点击带横线的绿色按钮缩小地图;或者点击绿色箭头查看邻近地区的地图。


METAR-TAF: